Chadwick, Illinois
Current Conditions -  °F | °C
As of 6:15 PM on Wednesday 28 Jan 2015 (Local Time) from KSFY Reporting Station
Clear Clear  
Wind Chill: 24°   Ceiling: Unl
Heat Index: 34°   Visibility: 10mi
Dew Point: 29°   Wind: 15mph
Humidity: 83%   Direction: 140°SE
Pressure: 29.86"   Gusts: NA
Location:  42.01°N, 89.89°W
Report Text: KSFY 290015Z AUTO 14013KT 10SM CLR 01/M02 A2986 RMK AO2 T00101016
Loading
Personal Weather Stations






























Interactive Weather Map New forecast layout! Learn more

10-Day Weather Forecast

Advertisements
Track Severe Weather on mobile